createdAt,value
2018-12-08T00:02:01.825Z,94.40
2018-12-08T00:04:31.336Z,95.10
2018-12-08T00:07:00.701Z,96.50
2018-12-08T00:09:29.845Z,94.80
2018-12-08T00:11:59.023Z,92.80
2018-12-08T00:14:28.224Z,93.20
2018-12-08T00:16:57.260Z,95.60
2018-12-08T00:19:26.537Z,95.30
2018-12-08T00:21:56.313Z,95.00
2018-12-08T00:24:25.440Z,92.30
2018-12-08T00:26:54.508Z,94.10
2018-12-08T00:29:23.719Z,92.10
2018-12-08T00:31:53.137Z,93.10
2018-12-08T00:34:22.323Z,93.80
2018-12-08T00:36:51.544Z,92.80
2018-12-08T00:39:20.735Z,94.20
2018-12-08T00:41:49.768Z,91.00
2018-12-08T00:44:18.924Z,92.80
2018-12-08T00:46:48.104Z,93.10
2018-12-08T00:49:17.201Z,94.30
2018-12-08T00:51:46.272Z,95.50
2018-12-08T00:54:15.388Z,93.90
2018-12-08T00:56:45.011Z,92.70
2018-12-08T00:59:14.096Z,93.10
2018-12-08T01:01:44.588Z,93.30
2018-12-08T01:04:14.575Z,93.70
2018-12-08T01:06:43.822Z,93.80
2018-12-08T01:09:12.926Z,93.30
2018-12-08T01:11:42.298Z,93.60
2018-12-08T01:14:11.575Z,94.40
2018-12-08T01:16:40.855Z,92.60
2018-12-08T01:19:10.459Z,93.40
2018-12-08T01:21:39.778Z,95.70
2018-12-08T01:24:09.036Z,91.90
2018-12-08T01:26:38.301Z,92.80
2018-12-08T01:29:07.572Z,93.60
2018-12-08T01:31:36.855Z,93.60
2018-12-08T01:34:05.917Z,94.50
2018-12-08T01:36:35.067Z,92.90
2018-12-08T01:39:06.493Z,92.90
2018-12-08T01:41:36.165Z,93.10
2018-12-08T01:44:05.264Z,92.30
2018-12-08T01:46:35.147Z,92.70
2018-12-08T01:49:04.480Z,93.70
2018-12-08T01:51:33.614Z,92.40
2018-12-08T01:54:02.883Z,93.10
2018-12-08T01:56:31.993Z,93.50
2018-12-08T01:59:01.315Z,93.00
2018-12-08T02:01:30.526Z,93.60
2018-12-08T02:03:59.827Z,93.50
2018-12-08T02:06:28.904Z,94.30
2018-12-08T02:08:58.060Z,93.90
2018-12-08T02:11:27.412Z,96.60
2018-12-08T02:13:56.608Z,92.60
2018-12-08T02:16:25.808Z,93.60
2018-12-08T02:18:54.859Z,92.10
2018-12-08T02:21:24.111Z,93.50
2018-12-08T02:23:53.348Z,95.30
2018-12-08T02:26:22.359Z,95.20
2018-12-08T02:28:51.430Z,91.90
2018-12-08T02:31:20.775Z,93.30
2018-12-08T02:33:56.664Z,94.30
2018-12-08T02:36:25.709Z,94.60
2018-12-08T02:38:54.885Z,93.20
2018-12-08T02:41:24.017Z,92.90
2018-12-08T02:43:53.167Z,92.50
2018-12-08T02:46:22.513Z,95.40
2018-12-08T02:48:51.876Z,91.60
2018-12-08T02:51:20.919Z,91.90
2018-12-08T02:53:49.948Z,93.40
2018-12-08T02:56:19.203Z,92.20
2018-12-08T02:58:49.087Z,92.40
2018-12-08T03:01:18.051Z,93.50
2018-12-08T03:03:47.187Z,92.10
2018-12-08T03:06:16.241Z,92.50
2018-12-08T03:08:45.259Z,93.50
2018-12-08T03:11:14.396Z,93.30
2018-12-08T03:13:43.462Z,94.00
2018-12-08T03:16:12.684Z,92.50
2018-12-08T03:18:41.847Z,93.00
2018-12-08T03:21:11.150Z,94.60
2018-12-08T03:23:40.258Z,92.10
2018-12-08T03:26:09.423Z,93.40
2018-12-08T03:28:38.569Z,93.30
2018-12-08T03:31:07.880Z,91.60
2018-12-08T03:33:36.948Z,92.20
2018-12-08T03:36:06.095Z,93.30
2018-12-08T03:38:35.256Z,92.00
2018-12-08T03:41:04.302Z,91.90
2018-12-08T03:43:33.523Z,92.40
2018-12-08T03:46:02.744Z,91.30
2018-12-08T03:48:31.873Z,91.50
2018-12-08T03:51:00.885Z,92.00
2018-12-08T03:53:29.892Z,92.90
2018-12-08T03:55:58.971Z,92.80
2018-12-08T03:58:28.107Z,92.60
2018-12-08T04:00:57.425Z,93.40
2018-12-08T04:03:26.481Z,93.30
2018-12-08T04:05:56.324Z,93.10
2018-12-08T04:08:25.495Z,94.10
2018-12-08T04:10:54.554Z,95.90
2018-12-08T04:13:24.203Z,94.70
2018-12-08T04:15:53.504Z,92.10
2018-12-08T04:18:22.603Z,93.10
2018-12-08T04:20:51.816Z,93.10
2018-12-08T04:23:21.196Z,93.90
2018-12-08T04:25:50.413Z,92.70
2018-12-08T04:28:19.786Z,92.80
2018-12-08T04:30:49.011Z,92.90
2018-12-08T04:33:18.819Z,93.60
2018-12-08T04:35:48.511Z,94.70
2018-12-08T04:38:17.775Z,93.10
2018-12-08T04:40:47.212Z,93.00
2018-12-08T04:43:16.940Z,93.10
2018-12-08T04:45:46.140Z,92.60
2018-12-08T04:48:15.730Z,92.80
2018-12-08T04:50:45.739Z,92.50
2018-12-08T04:53:14.920Z,93.50
2018-12-08T04:55:44.149Z,93.70
2018-12-08T04:58:13.301Z,94.10
2018-12-08T05:00:42.544Z,93.10
2018-12-08T05:03:11.760Z,94.90
2018-12-08T05:05:40.927Z,93.20
2018-12-08T05:08:09.991Z,93.50
2018-12-08T05:10:39.052Z,92.70
2018-12-08T05:13:08.183Z,92.20
2018-12-08T05:15:37.408Z,92.20
2018-12-08T05:18:06.464Z,92.60
2018-12-08T05:20:35.516Z,92.00
2018-12-08T05:23:04.808Z,92.00
2018-12-08T05:25:33.999Z,92.40
2018-12-08T05:28:03.181Z,92.60
2018-12-08T05:30:32.309Z,92.30
2018-12-08T05:33:01.336Z,91.60
2018-12-08T05:35:30.476Z,93.00
2018-12-08T05:37:59.528Z,92.60
2018-12-08T05:40:28.568Z,94.00
2018-12-08T05:42:57.791Z,91.60
2018-12-08T05:45:26.759Z,91.50
2018-12-08T05:47:55.926Z,91.30
2018-12-08T05:50:25.047Z,91.60
2018-12-08T05:52:54.106Z,92.00
2018-12-08T05:55:23.313Z,91.70
2018-12-08T05:57:52.285Z,92.60
2018-12-08T06:00:21.782Z,92.00
2018-12-08T06:02:51.513Z,92.10
2018-12-08T06:05:20.662Z,92.90
2018-12-08T06:07:49.695Z,92.20
2018-12-08T06:10:18.963Z,92.40
2018-12-08T06:12:48.640Z,91.60
2018-12-08T06:15:17.865Z,92.00
2018-12-08T06:17:47.049Z,92.70
2018-12-08T06:20:16.743Z,93.00
2018-12-08T06:22:45.808Z,91.90
2018-12-08T06:25:24.559Z,92.00
2018-12-08T06:28:06.485Z,92.10
2018-12-08T06:30:35.607Z,92.40
2018-12-08T06:33:04.850Z,92.90
2018-12-08T06:35:33.899Z,91.80
2018-12-08T06:38:03.036Z,92.90
2018-12-08T06:40:32.100Z,92.80
2018-12-08T06:43:01.255Z,92.40
2018-12-08T06:45:30.398Z,93.80
2018-12-08T06:47:59.487Z,92.50
2018-12-08T06:50:28.577Z,92.10
2018-12-08T06:52:57.712Z,92.80
2018-12-08T06:55:26.875Z,92.40
2018-12-08T06:57:56.020Z,92.10
2018-12-08T07:00:25.169Z,93.10
2018-12-08T07:02:54.304Z,91.50
2018-12-08T07:05:23.493Z,92.90
2018-12-08T07:07:52.691Z,91.70
2018-12-08T07:10:21.740Z,92.40
2018-12-08T07:15:43.540Z,94.10
2018-12-08T07:18:12.791Z,95.00
2018-12-08T07:20:42.045Z,94.60
2018-12-08T07:23:11.176Z,95.20
2018-12-08T07:25:40.223Z,95.10
2018-12-08T07:28:09.244Z,95.60
2018-12-08T07:30:42.891Z,95.00
2018-12-08T07:33:12.151Z,95.40
2018-12-08T07:35:41.210Z,96.00
2018-12-08T07:38:10.340Z,95.50
2018-12-08T07:40:39.504Z,96.00
2018-12-08T07:43:08.653Z,96.20
2018-12-08T07:45:37.750Z,95.00
2018-12-08T07:48:07.052Z,95.50
2018-12-08T07:50:36.198Z,95.60
2018-12-08T07:53:05.452Z,96.00
2018-12-08T07:55:34.747Z,95.50
2018-12-08T07:58:03.892Z,96.50
2018-12-08T08:00:32.904Z,96.80
2018-12-08T08:03:02.789Z,96.40
2018-12-08T08:05:32.056Z,96.40
2018-12-08T08:08:01.307Z,97.70
2018-12-08T08:10:30.528Z,97.80
2018-12-08T08:12:59.738Z,97.50
2018-12-08T08:15:28.925Z,96.10
2018-12-08T08:17:57.981Z,96.00
2018-12-08T08:20:27.321Z,95.30
2018-12-08T08:22:57.059Z,95.00
2018-12-08T08:27:54.624Z,96.20
2018-12-08T08:30:23.815Z,95.60
2018-12-08T08:32:52.790Z,95.80
2018-12-08T08:35:22.211Z,96.20
2018-12-08T08:37:51.247Z,96.60
2018-12-08T08:40:20.384Z,95.70
2018-12-08T08:42:50.503Z,96.20
2018-12-08T08:45:19.697Z,96.20
2018-12-08T08:47:48.761Z,96.40
2018-12-08T08:50:18.592Z,95.30
2018-12-08T08:52:47.763Z,95.50
2018-12-08T08:55:16.779Z,94.80
2018-12-08T08:57:45.948Z,95.60
2018-12-08T09:00:15.104Z,95.60
2018-12-08T09:02:44.255Z,95.50
2018-12-08T09:05:13.692Z,95.40
2018-12-08T09:07:42.800Z,95.40
2018-12-08T09:10:12.358Z,95.20
2018-12-08T09:12:41.467Z,95.20
2018-12-08T09:15:10.603Z,95.70
2018-12-08T09:17:39.768Z,95.90
2018-12-08T09:20:10.904Z,95.80
2018-12-08T09:22:40.739Z,95.70
2018-12-08T09:25:10.624Z,96.50
2018-12-08T09:27:39.775Z,96.20
2018-12-08T09:30:10.917Z,96.10
2018-12-08T09:32:40.088Z,96.20
2018-12-08T09:35:09.245Z,96.20
2018-12-08T09:37:38.275Z,96.20
2018-12-08T09:40:08.077Z,95.90
2018-12-08T09:42:37.153Z,95.80
2018-12-08T09:45:06.867Z,95.30
2018-12-08T09:47:36.648Z,95.80
2018-12-08T09:50:07.004Z,95.30
2018-12-08T09:52:36.414Z,96.30
2018-12-08T09:55:06.197Z,96.20
2018-12-08T09:57:35.335Z,96.20
2018-12-08T10:00:05.036Z,96.00
2018-12-08T10:02:34.140Z,96.40
2018-12-08T10:05:03.400Z,96.60
2018-12-08T10:07:32.865Z,96.30
2018-12-08T10:10:01.988Z,96.20
2018-12-08T10:12:31.248Z,96.80
2018-12-08T10:15:00.388Z,96.70
2018-12-08T10:17:29.418Z,97.10
2018-12-08T10:19:58.470Z,96.50
2018-12-08T10:22:28.033Z,96.70
2018-12-08T10:24:57.390Z,97.00
2018-12-08T10:27:26.637Z,97.10
2018-12-08T10:29:55.936Z,96.70
2018-12-08T10:32:25.248Z,97.10
2018-12-08T10:34:54.587Z,97.00
2018-12-08T10:37:23.918Z,97.50
2018-12-08T10:39:53.148Z,97.10
2018-12-08T10:42:22.185Z,96.90
2018-12-08T10:44:51.223Z,96.60
2018-12-08T10:47:20.400Z,96.80
2018-12-08T10:49:49.534Z,96.30
2018-12-08T10:52:18.611Z,96.50
2018-12-08T10:54:47.807Z,96.60
2018-12-08T10:57:17.087Z,95.90
2018-12-08T10:59:46.150Z,95.70
2018-12-08T11:02:20.487Z,96.60
2018-12-08T11:04:49.554Z,96.20
2018-12-08T11:07:18.756Z,96.20
2018-12-08T11:09:47.780Z,95.60
2018-12-08T11:12:17.099Z,94.80
2018-12-08T11:14:46.400Z,94.80
2018-12-08T11:17:15.611Z,95.60
2018-12-08T11:19:44.774Z,94.40
2018-12-08T11:22:14.108Z,95.10
2018-12-08T11:24:43.351Z,94.70
2018-12-08T11:27:12.574Z,94.60
2018-12-08T11:29:41.683Z,95.10
2018-12-08T11:32:10.811Z,95.30
2018-12-08T11:34:39.979Z,94.60
2018-12-08T11:37:08.983Z,94.40
2018-12-08T11:39:38.056Z,94.60
2018-12-08T11:42:07.211Z,94.00
2018-12-08T11:44:36.486Z,94.00
2018-12-08T11:47:06.080Z,93.70
2018-12-08T11:49:35.251Z,93.50
2018-12-08T11:52:04.547Z,93.30
2018-12-08T11:54:33.740Z,93.10
2018-12-08T11:57:03.011Z,93.00
2018-12-08T11:59:32.044Z,94.20
2018-12-08T12:02:01.255Z,93.40
2018-12-08T12:04:30.317Z,93.30
2018-12-08T12:06:59.491Z,93.30
2018-12-08T12:09:28.515Z,92.10
2018-12-08T12:11:57.585Z,92.70
2018-12-08T12:14:41.657Z,92.00
2018-12-08T12:17:10.787Z,92.20
2018-12-08T12:19:39.945Z,91.30
2018-12-08T12:22:09.011Z,92.10
2018-12-08T12:24:38.156Z,91.60
2018-12-08T12:27:06.997Z,91.60
2018-12-08T12:29:36.328Z,91.40
2018-12-08T12:32:05.256Z,91.00
2018-12-08T12:34:34.075Z,91.20
2018-12-08T12:37:03.283Z,90.90
2018-12-08T12:39:32.411Z,90.60
2018-12-08T12:42:01.555Z,90.60
2018-12-08T12:44:30.967Z,90.50
2018-12-08T12:46:59.952Z,91.20
2018-12-08T12:49:29.473Z,90.60
2018-12-08T12:51:58.912Z,90.70
2018-12-08T12:54:27.956Z,91.10
2018-12-08T12:56:57.194Z,91.20
2018-12-08T12:59:26.408Z,91.30
2018-12-08T13:01:55.685Z,91.30
2018-12-08T13:04:24.753Z,91.10
2018-12-08T13:06:53.908Z,91.50
2018-12-08T13:09:23.040Z,90.30
2018-12-08T13:11:52.524Z,90.40
2018-12-08T13:14:22.601Z,90.50
2018-12-08T13:16:51.756Z,91.40
2018-12-08T13:19:20.822Z,89.50
2018-12-08T13:21:49.840Z,90.30
2018-12-08T13:24:19.122Z,90.10
2018-12-08T13:26:48.468Z,89.20
2018-12-08T13:29:17.505Z,90.00
2018-12-08T13:31:46.661Z,90.20
2018-12-08T13:34:24.912Z,88.90
2018-12-08T13:36:54.056Z,89.60
2018-12-08T13:39:23.054Z,90.60
2018-12-08T13:41:52.236Z,90.10
2018-12-08T13:44:39.557Z,90.80
2018-12-08T13:47:08.657Z,91.60
2018-12-08T13:49:37.929Z,91.90
2018-12-08T13:52:07.052Z,92.20
2018-12-08T13:54:47.505Z,92.80
2018-12-08T13:57:16.592Z,92.90
2018-12-08T13:59:55.484Z,91.60
2018-12-08T14:02:24.724Z,92.20
2018-12-08T14:04:53.898Z,91.90
2018-12-08T14:07:23.023Z,93.30
2018-12-08T14:09:52.070Z,92.40
2018-12-08T14:12:21.218Z,91.80
2018-12-08T14:14:50.263Z,91.70
2018-12-08T14:17:19.288Z,92.00
2018-12-08T14:19:48.432Z,92.30
2018-12-08T14:22:17.704Z,91.50
2018-12-08T14:24:46.853Z,92.10
2018-12-08T14:27:15.884Z,91.50
2018-12-08T14:29:44.928Z,91.50
2018-12-08T14:32:14.192Z,91.30
2018-12-08T14:34:43.388Z,91.00
2018-12-08T14:37:12.474Z,90.50
2018-12-08T14:39:41.511Z,90.30
2018-12-08T14:42:10.776Z,91.50
2018-12-08T14:44:40.479Z,88.50
2018-12-08T14:47:09.680Z,89.90
2018-12-08T14:49:38.732Z,87.20
2018-12-08T14:52:07.867Z,87.80
2018-12-08T14:54:37.047Z,89.50
2018-12-08T14:57:06.107Z,87.40
2018-12-08T14:59:35.465Z,88.50
2018-12-08T15:02:04.823Z,90.70
2018-12-08T15:04:33.964Z,89.10
2018-12-08T15:07:02.986Z,89.10
2018-12-08T15:09:32.253Z,87.20
2018-12-08T15:12:01.943Z,88.70
2018-12-08T15:14:31.344Z,87.70
2018-12-08T15:17:01.534Z,86.20
2018-12-08T15:19:30.695Z,86.80
2018-12-08T15:21:59.884Z,86.40
2018-12-08T15:24:29.174Z,87.00
2018-12-08T15:26:58.432Z,86.40
2018-12-08T15:29:27.635Z,85.90
2018-12-08T15:31:56.719Z,85.20
2018-12-08T15:34:26.229Z,87.30
2018-12-08T15:36:56.378Z,85.80
2018-12-08T15:39:25.726Z,87.30
2018-12-08T15:41:55.384Z,85.40
2018-12-08T15:44:25.008Z,87.40
2018-12-08T15:46:54.802Z,84.10
2018-12-08T15:49:24.207Z,85.60
2018-12-08T15:51:57.098Z,89.00
2018-12-08T15:54:26.301Z,84.10
2018-12-08T15:56:55.340Z,89.00
2018-12-08T15:59:24.391Z,84.10
2018-12-08T16:01:53.632Z,83.70
2018-12-08T16:04:22.777Z,84.80
2018-12-08T16:06:51.836Z,88.20
2018-12-08T16:09:21.068Z,85.90
2018-12-08T16:11:50.943Z,86.20
2018-12-08T16:14:20.068Z,87.80
2018-12-08T16:16:49.225Z,87.20
2018-12-08T16:19:18.585Z,88.10
2018-12-08T16:21:47.835Z,86.00
2018-12-08T16:24:16.952Z,84.50
2018-12-08T16:26:46.156Z,85.70
2018-12-08T16:29:15.223Z,85.30
2018-12-08T16:31:44.760Z,91.40
2018-12-08T16:34:13.808Z,88.50
2018-12-08T16:36:42.940Z,84.10
2018-12-08T16:39:11.999Z,84.60
2018-12-08T16:41:41.139Z,87.20
2018-12-08T16:44:10.292Z,85.80
2018-12-08T16:46:39.345Z,90.50
2018-12-08T16:49:08.484Z,88.80
2018-12-08T16:51:37.845Z,89.20
2018-12-08T16:54:07.143Z,88.70
2018-12-08T16:56:36.315Z,90.80
2018-12-08T16:59:05.464Z,92.20
2018-12-08T17:01:34.500Z,92.20
2018-12-08T17:04:04.469Z,93.20
2018-12-08T17:06:33.617Z,93.80
2018-12-08T17:09:02.832Z,94.20
2018-12-08T17:11:31.928Z,94.20
2018-12-08T17:14:00.968Z,94.20
2018-12-08T17:16:29.989Z,93.70
2018-12-08T17:18:59.624Z,93.10
2018-12-08T17:21:29.216Z,93.80
2018-12-08T17:23:58.500Z,93.90
2018-12-08T17:26:27.631Z,93.60
2018-12-08T17:28:56.667Z,93.80
2018-12-08T17:31:25.808Z,94.50
2018-12-08T17:33:54.853Z,95.10
2018-12-08T17:36:24.212Z,94.00
2018-12-08T17:38:53.412Z,93.90
2018-12-08T17:41:22.551Z,94.40
2018-12-08T17:43:51.800Z,94.60
2018-12-08T17:46:21.000Z,94.20
2018-12-08T17:48:50.180Z,94.80
2018-12-08T17:51:19.560Z,96.00
2018-12-08T17:53:49.003Z,97.00
2018-12-08T17:56:18.153Z,97.90
2018-12-08T17:58:47.384Z,97.40
2018-12-08T18:01:16.651Z,97.10
2018-12-08T18:03:45.770Z,97.30
2018-12-08T18:06:14.988Z,98.00
2018-12-08T18:08:44.179Z,98.50
2018-12-08T18:11:13.822Z,98.10
2018-12-08T18:13:43.093Z,97.50
2018-12-08T18:16:12.452Z,98.30
2018-12-08T18:18:41.479Z,98.10
2018-12-08T18:21:10.688Z,97.30
2018-12-08T18:23:39.979Z,97.60
2018-12-08T18:26:09.137Z,97.70
2018-12-08T18:28:38.380Z,97.30
2018-12-08T18:31:07.628Z,97.50
2018-12-08T18:33:36.870Z,97.40
2018-12-08T18:36:05.907Z,97.80
2018-12-08T18:38:35.048Z,97.10
2018-12-08T18:41:04.466Z,97.30
2018-12-08T18:43:33.540Z,97.90
2018-12-08T18:46:02.812Z,98.00
2018-12-08T18:48:32.353Z,98.00
2018-12-08T18:51:01.572Z,97.70
2018-12-08T18:53:30.864Z,97.50
2018-12-08T18:56:00.112Z,97.60
2018-12-08T18:58:29.130Z,97.60
2018-12-08T19:00:58.304Z,98.00
2018-12-08T19:03:27.283Z,98.00
2018-12-08T19:05:57.035Z,98.70
2018-12-08T19:08:26.895Z,98.50
2018-12-08T19:10:56.167Z,98.20
2018-12-08T19:13:25.567Z,97.80
2018-12-08T19:15:55.152Z,98.20
2018-12-08T19:18:24.580Z,98.50
2018-12-08T19:20:53.638Z,97.10
2018-12-08T19:23:22.920Z,97.50
2018-12-08T19:25:52.044Z,98.10
2018-12-08T19:28:21.261Z,98.00
2018-12-08T19:30:50.455Z,97.50
2018-12-08T19:33:19.656Z,98.00
2018-12-08T19:35:48.855Z,98.50
2018-12-08T19:38:18.000Z,97.70
2018-12-08T19:40:47.135Z,97.40
2018-12-08T19:43:18.465Z,98.00
2018-12-08T19:45:47.675Z,98.40
2018-12-08T19:48:17.192Z,98.50
2018-12-08T19:50:46.463Z,98.70
2018-12-08T19:53:16.404Z,98.60
2018-12-08T19:55:45.709Z,99.00
2018-12-08T19:58:14.959Z,98.80
2018-12-08T20:00:44.097Z,98.90
2018-12-08T20:03:13.382Z,99.00
2018-12-08T20:05:42.585Z,98.80
2018-12-08T20:08:11.745Z,99.30
2018-12-08T20:10:40.880Z,98.60
2018-12-08T20:13:10.091Z,98.80
2018-12-08T20:15:39.156Z,98.50
2018-12-08T20:18:08.499Z,98.40
2018-12-08T20:20:37.681Z,98.60
2018-12-08T20:23:06.981Z,99.10
2018-12-08T20:25:36.062Z,99.30
2018-12-08T20:28:05.456Z,99.70
2018-12-08T20:30:35.060Z,99.90
2018-12-08T20:33:04.229Z,99.90
2018-12-08T20:35:33.432Z,99.00
2018-12-08T20:38:02.564Z,99.10
2018-12-08T20:40:31.772Z,98.20
2018-12-08T20:43:00.862Z,99.90
2018-12-08T20:45:29.962Z,99.90
2018-12-08T20:47:59.180Z,99.80
2018-12-08T20:50:28.316Z,99.10
2018-12-08T20:52:57.456Z,98.70
2018-12-08T20:55:29.289Z,99.40
2018-12-08T20:57:58.576Z,99.00
2018-12-08T21:00:27.648Z,98.60
2018-12-08T21:02:57.109Z,98.20
2018-12-08T21:05:26.410Z,97.50
2018-12-08T21:07:55.483Z,97.90
2018-12-08T21:10:24.595Z,97.20
2018-12-08T21:12:53.784Z,97.10
2018-12-08T21:15:22.944Z,97.70
2018-12-08T21:17:52.194Z,97.80
2018-12-08T21:20:21.219Z,97.60
2018-12-08T21:22:50.592Z,97.00
2018-12-08T21:25:19.828Z,95.40
2018-12-08T21:27:49.069Z,96.40
2018-12-08T21:30:18.132Z,97.10
2018-12-08T21:32:47.488Z,97.90
2018-12-08T21:35:16.775Z,98.50
2018-12-08T21:37:45.956Z,98.30
2018-12-08T21:40:28.538Z,97.90
2018-12-08T21:42:57.968Z,98.90
2018-12-08T21:45:28.628Z,99.30
2018-12-08T21:47:58.312Z,98.40
2018-12-08T21:50:29.220Z,98.40
2018-12-08T21:52:59.084Z,98.00
2018-12-08T21:55:29.511Z,98.30
2018-12-08T21:57:59.087Z,98.30
2018-12-08T22:00:28.796Z,98.10
2018-12-08T22:02:57.973Z,97.40
2018-12-08T22:05:27.000Z,97.00
2018-12-08T22:07:56.411Z,97.30
2018-12-08T22:10:25.894Z,96.30
2018-12-08T22:12:55.420Z,96.30
2018-12-08T22:15:24.706Z,96.40
2018-12-08T22:17:53.964Z,96.60
2018-12-08T22:20:23.094Z,96.70
2018-12-08T22:22:52.372Z,97.00
2018-12-08T22:25:21.387Z,96.60
2018-12-08T22:27:50.451Z,97.10
2018-12-08T22:30:19.691Z,96.80
2018-12-08T22:32:48.744Z,96.80
2018-12-08T22:35:17.768Z,96.70
2018-12-08T22:37:46.828Z,96.30
2018-12-08T22:40:15.947Z,96.30
2018-12-08T22:42:45.171Z,96.10
2018-12-08T22:45:14.579Z,96.70
2018-12-08T22:47:43.875Z,96.00
2018-12-08T22:50:13.682Z,96.40
2018-12-08T22:52:42.750Z,96.20
2018-12-08T22:55:11.946Z,95.80
2018-12-08T22:57:41.044Z,95.00
2018-12-08T23:00:18.990Z,95.20
2018-12-08T23:02:48.160Z,95.70
2018-12-08T23:05:17.332Z,96.50
2018-12-08T23:07:46.441Z,96.30
2018-12-08T23:10:15.704Z,97.60
2018-12-08T23:12:44.952Z,97.90
2018-12-08T23:15:14.017Z,97.90
2018-12-08T23:17:43.030Z,97.40
2018-12-08T23:20:12.811Z,97.90
2018-12-08T23:22:41.828Z,97.30
2018-12-08T23:25:11.018Z,96.40
2018-12-08T23:27:40.231Z,96.20
2018-12-08T23:30:09.933Z,96.70
2018-12-08T23:32:39.129Z,96.50
2018-12-08T23:35:08.407Z,95.90
2018-12-08T23:37:37.584Z,96.60
2018-12-08T23:40:07.680Z,96.30
2018-12-08T23:42:36.750Z,95.90
2018-12-08T23:45:06.408Z,95.70
2018-12-08T23:47:35.449Z,95.60
2018-12-08T23:50:05.122Z,95.10
2018-12-08T23:52:34.264Z,95.00
2018-12-08T23:55:03.419Z,95.10
2018-12-08T23:57:32.665Z,94.90
